Time;durP1;ratioP1;P1;durP2;ratioP2;P2;SDS_P1;SDS_P2;PMS_P1;PMS_P2;Temp;Humidity;BMP_temperature;BMP_pressure;BME280_temperature;BME280_humidity;BME280_pressure;Samples;Min_cycle;Max_cycle;Signal;HPM_P1;HPM_P2
2022/08/03 00:01:28;;;;;;;1.77;1.45;;;21.20;99.90;;;;;;5089831;28;20438;-82
2022/08/03 00:03:53;;;;;;;2.15;1.67;;;21.20;99.90;;;;;;5089710;28;20057;-83
2022/08/03 00:06:19;;;;;;;2.75;1.83;;;21.20;99.90;;;;;;5107984;28;20024;-83
2022/08/03 00:08:45;;;;;;;5.05;1.80;;;21.20;99.90;;;;;;5108317;28;20059;-82
2022/08/03 00:11:10;;;;;;;3.55;1.98;;;21.20;99.90;;;;;;5108125;28;20498;-84
2022/08/03 00:13:36;;;;;;;3.13;1.60;;;21.20;99.90;;;;;;5089774;28;20063;-83
2022/08/03 00:16:03;;;;;;;3.53;1.52;;;21.20;99.90;;;;;;5107882;28;20428;-83
2022/08/03 00:18:29;;;;;;;2.53;1.90;;;21.20;99.90;;;;;;5089099;28;20027;-83
2022/08/03 00:20:55;;;;;;;4.95;2.28;;;21.20;99.90;;;;;;5107166;28;20065;-82
2022/08/03 00:23:20;;;;;;;2.55;2.00;;;21.20;99.90;;;;;;5090064;28;20031;-83
2022/08/03 00:25:46;;;;;;;5.85;2.00;;;21.20;99.90;;;;;;5090034;28;20032;-82
2022/08/03 00:28:12;;;;;;;2.80;2.30;;;21.20;99.90;;;;;;5107809;28;20410;-82
2022/08/03 00:30:37;;;;;;;3.58;2.22;;;21.20;99.90;;;;;;5089823;28;20047;-83
2022/08/03 00:33:03;;;;;;;3.00;2.17;;;21.10;99.90;;;;;;5107443;28;20078;-83
2022/08/03 00:35:29;;;;;;;5.95;2.50;;;21.20;99.90;;;;;;5107441;28;20035;-82
2022/08/03 00:37:55;;;;;;;3.75;2.50;;;21.10;99.90;;;;;;5088866;28;20131;-82
2022/08/03 00:40:21;;;;;;;3.50;2.88;;;21.20;99.90;;;;;;5108160;28;20567;-83
2022/08/03 00:42:52;;;;;;;4.30;3.20;;;21.20;99.90;;;;;;5089150;28;20024;-82
2022/08/03 00:45:24;;;;;;;6.93;3.33;;;21.20;99.90;;;;;;5107376;28;20377;-83
2022/08/03 00:47:51;;;;;;;7.95;3.70;;;21.20;99.90;;;;;;5088827;28;20734;-84
2022/08/03 00:50:18;;;;;;;4.20;3.05;;;21.20;99.90;;;;;;5089355;28;20055;-83
2022/08/03 00:52:44;;;;;;;4.18;3.58;;;21.30;99.90;;;;;;5107400;28;20038;-82
2022/08/03 00:55:10;;;;;;;6.05;4.30;;;21.40;99.90;;;;;;5107687;28;20035;-82
2022/08/03 00:57:36;;;;;;;4.47;3.47;;;21.40;99.90;;;;;;5088659;28;20031;-83
2022/08/03 01:00:04;;;;;;;5.22;3.67;;;21.40;99.90;;;;;;5089156;28;20028;-82
2022/08/03 01:02:30;;;;;;;5.07;3.10;;;21.40;99.90;;;;;;5088879;28;20032;-81
2022/08/03 01:04:56;;;;;;;6.07;3.25;;;21.50;99.90;;;;;;5088761;28;20047;-83
2022/08/03 01:07:46;;;;;;;3.42;2.67;;;21.40;99.90;;;;;;5107093;28;20032;-82
2022/08/03 01:10:23;;;;;;;3.95;2.90;;;21.40;99.90;;;;;;5089110;28;20079;-83
2022/08/03 01:13:15;;;;;;;3.75;3.20;;;21.40;99.90;;;;;;5088929;28;20043;-82
2022/08/03 01:16:04;;;;;;;4.53;2.80;;;21.40;99.90;;;;;;5088184;28;20035;-82
2022/08/03 01:18:55;;;;;;;3.10;2.65;;;21.40;99.90;;;;;;5110584;28;20019;-83
2022/08/03 01:21:32;;;;;;;6.22;2.83;;;21.30;99.90;;;;;;5092773;28;20065;-83
2022/08/03 01:24:21;;;;;;;4.38;3.17;;;21.30;99.90;;;;;;5092959;28;20580;-83
2022/08/03 01:27:14;;;;;;;7.38;3.13;;;21.30;99.90;;;;;;5092983;28;20133;-83
2022/08/03 01:29:58;;;;;;;3.53;2.92;;;21.40;99.90;;;;;;5091775;28;20032;-83
2022/08/03 01:32:48;;;;;;;3.42;2.83;;;21.30;99.90;;;;;;5110429;28;20043;-83
2022/08/03 01:35:29;;;;;;;7.53;3.63;;;21.40;99.90;;;;;;5092966;28;20023;-82
2022/08/03 01:38:01;;;;;;;4.38;3.40;;;21.40;99.90;;;;;;5087981;28;20035;-83
2022/08/03 01:40:28;;;;;;;4.00;2.95;;;21.40;99.90;;;;;;5092476;28;20066;-83
2022/08/03 01:42:58;;;;;;;3.42;2.92;;;21.40;99.90;;;;;;5110953;28;20023;-82
2022/08/03 01:45:26;;;;;;;4.60;3.42;;;21.40;99.90;;;;;;5092365;28;20035;-83
2022/08/03 01:47:53;;;;;;;3.75;2.92;;;21.30;99.90;;;;;;5109547;28;20497;-82
2022/08/03 01:50:23;;;;;;;5.20;3.60;;;21.30;99.90;;;;;;5111114;28;20703;-82
2022/08/03 01:52:50;;;;;;;3.30;2.38;;;21.30;99.90;;;;;;5092687;28;20066;-83
2022/08/03 01:55:19;;;;;;;5.28;3.13;;;21.30;99.90;;;;;;5092557;28;20024;-83
2022/08/03 01:57:48;;;;;;;4.18;3.00;;;21.20;99.90;;;;;;5091905;28;20023;-83
2022/08/03 02:00:15;;;;;;;5.85;2.65;;;21.20;99.90;;;;;;5092603;28;20134;-82
2022/08/03 02:02:43;;;;;;;6.40;2.90;;;21.20;99.90;;;;;;5110119;28;20055;-81
2022/08/03 02:05:12;;;;;;;6.40;3.13;;;21.20;99.90;;;;;;5110888;28;20020;-82
2022/08/03 02:07:40;;;;;;;4.65;3.05;;;21.20;99.90;;;;;;5092904;28;20130;-82
2022/08/03 02:10:08;;;;;;;3.72;2.65;;;21.10;99.90;;;;;;5092207;28;20778;-82
2022/08/03 02:12:36;;;;;;;4.82;3.40;;;21.10;99.90;;;;;;5092208;28;20035;-82
2022/08/03 02:15:02;;;;;;;4.32;3.10;;;21.10;99.90;;;;;;5092631;28;20023;-80
2022/08/03 02:17:32;;;;;;;5.15;3.15;;;21.00;99.90;;;;;;5109883;28;20055;-81
2022/08/03 02:20:00;;;;;;;6.32;3.45;;;21.00;99.90;;;;;;5091802;28;20074;-82
2022/08/03 02:22:28;;;;;;;3.80;3.38;;;21.00;99.90;;;;;;5091817;28;20122;-81
2022/08/03 02:24:54;;;;;;;6.80;3.65;;;20.90;99.90;;;;;;5092327;28;20063;-81
2022/08/03 02:27:26;;;;;;;3.50;2.92;;;20.80;99.90;;;;;;5092398;28;20028;-82
2022/08/03 02:30:02;;;;;;;3.55;2.92;;;20.80;99.90;;;;;;5091809;28;20483;-80
2022/08/03 02:32:33;;;;;;;;;;;20.70;99.90;;;;;;5091962;28;20519;-82
2022/08/03 02:35:01;;;;;;;4.45;3.60;;;20.70;99.90;;;;;;5092495;28;19990;-81
2022/08/03 02:37:33;;;;;;;3.63;3.13;;;20.60;99.90;;;;;;5091877;28;20487;-81
2022/08/03 02:40:04;;;;;;;4.07;3.03;;;20.50;99.90;;;;;;5109999;28;20114;-81
2022/08/03 02:42:37;;;;;;;3.25;2.90;;;20.50;99.90;;;;;;5091648;28;20024;-81
2022/08/03 02:45:11;;;;;;;3.95;3.38;;;20.40;99.90;;;;;;5109485;28;20484;-81
2022/08/03 02:47:40;;;;;;;4.22;3.30;;;20.40;99.90;;;;;;5090924;28;20016;-81
2022/08/03 02:50:12;;;;;;;4.50;3.38;;;20.30;99.90;;;;;;5091593;28;20016;-82
2022/08/03 02:52:40;;;;;;;4.30;3.65;;;20.20;99.90;;;;;;5091306;28;20066;-82
2022/08/03 02:55:09;;;;;;;5.00;3.45;;;20.20;99.90;;;;;;5109497;28;20035;-81
2022/08/03 02:57:36;;;;;;;6.57;3.08;;;20.20;99.90;;;;;;5091485;28;20023;-80
2022/08/03 03:00:03;;;;;;;3.90;3.50;;;20.20;99.90;;;;;;5090417;28;20031;-81
2022/08/03 03:02:31;;;;;;;6.78;4.00;;;20.10;99.90;;;;;;5108272;28;20032;-81
2022/08/03 03:04:58;;;;;;;4.43;3.20;;;20.10;99.90;;;;;;5091156;28;20024;-82
2022/08/03 03:07:25;;;;;;;4.10;3.40;;;20.10;99.90;;;;;;5109898;28;20096;-81
2022/08/03 03:09:52;;;;;;;5.07;3.65;;;20.00;99.90;;;;;;5090577;28;20118;-81
2022/08/03 03:12:19;;;;;;;4.97;3.25;;;20.00;99.90;;;;;;5091148;28;20047;-81
2022/08/03 03:14:45;;;;;;;4.05;3.33;;;19.90;99.90;;;;;;5091159;28;20070;-82
2022/08/03 03:17:13;;;;;;;6.03;2.90;;;19.90;99.90;;;;;;5090704;28;20059;-81
2022/08/03 03:19:40;;;;;;;6.25;3.53;;;19.80;99.90;;;;;;5090844;28;20476;-81
2022/08/03 03:22:07;;;;;;;5.25;2.92;;;19.80;99.90;;;;;;5090731;28;20484;-81
2022/08/03 03:24:35;;;;;;;4.57;3.30;;;19.90;99.90;;;;;;5090512;28;20023;-80
2022/08/03 03:27:02;;;;;;;6.43;3.58;;;19.80;99.90;;;;;;5090604;28;20424;-81
2022/08/03 03:29:28;;;;;;;8.10;3.30;;;19.80;99.90;;;;;;5108856;28;20555;-81
2022/08/03 03:31:56;;;;;;;7.47;3.55;;;19.80;99.90;;;;;;5107974;28;20074;-81
2022/08/03 03:34:22;;;;;;;4.35;3.70;;;19.70;99.90;;;;;;5090678;28;20168;-81
2022/08/03 03:36:48;;;;;;;10.45;3.92;;;19.70;99.90;;;;;;5089945;28;20027;-81
2022/08/03 03:39:14;;;;;;;7.82;3.47;;;19.70;99.90;;;;;;5108559;28;20022;-81
2022/08/03 03:41:39;;;;;;;6.85;3.60;;;19.80;99.90;;;;;;5090854;28;20793;-81
2022/08/03 03:44:05;;;;;;;7.30;3.85;;;19.80;99.90;;;;;;5090364;28;20498;-80
2022/08/03 03:46:31;;;;;;;3.75;3.25;;;19.80;99.90;;;;;;5090374;28;20667;-81
2022/08/03 03:48:57;;;;;;;4.53;3.25;;;19.80;99.90;;;;;;5090349;28;20526;-80
2022/08/03 03:51:22;;;;;;;4.03;3.13;;;19.90;99.90;;;;;;5108613;28;20035;-82
2022/08/03 03:53:57;;;;;;;6.13;3.53;;;20.00;99.90;;;;;;5108617;28;20449;-81
2022/08/03 03:56:23;;;;;;;5.93;3.47;;;20.00;99.90;;;;;;5090777;28;20034;-81
2022/08/03 03:58:49;;;;;;;6.00;3.50;;;20.10;99.90;;;;;;5090688;28;20169;-81
2022/08/03 04:01:15;;;;;;;5.10;3.20;;;20.20;99.90;;;;;;5089768;28;20578;-81
2022/08/03 04:03:41;;;;;;;4.22;2.92;;;20.30;99.90;;;;;;5090371;28;20024;-81
2022/08/03 04:11:25;;;;;;;4.40;3.38;;;20.70;99.90;;;;;;5108085;28;20482;-81
2022/08/03 04:13:57;;;;;;;3.85;3.20;;;20.90;99.90;;;;;;5089562;28;20103;-81
2022/08/03 04:16:30;;;;;;;4.97;2.97;;;21.00;99.90;;;;;;5107866;28;20019;-81
2022/08/03 04:19:01;;;;;;;4.15;2.92;;;21.10;99.90;;;;;;5108177;28;20384;-81
2022/08/03 04:21:29;;;;;;;4.78;3.15;;;21.20;99.90;;;;;;5089337;28;20069;-82
2022/08/03 04:24:00;;;;;;;4.13;2.97;;;21.20;99.90;;;;;;5108013;28;20034;-82
2022/08/03 04:26:30;;;;;;;6.63;2.95;;;21.30;99.90;;;;;;5089774;28;20027;-82
2022/08/03 04:28:57;;;;;;;5.72;3.10;;;21.50;99.90;;;;;;5089625;28;20027;-81
2022/08/03 04:31:24;;;;;;;3.83;3.05;;;21.50;99.90;;;;;;5089418;28;20031;-81
2022/08/03 04:33:52;;;;;;;6.22;3.50;;;21.60;99.90;;;;;;5107424;28;20089;-82
2022/08/03 04:36:21;;;;;;;5.22;2.90;;;21.80;99.90;;;;;;5089916;28;20123;-81
2022/08/03 04:39:03;;;;;;;7.88;3.55;;;21.90;99.90;;;;;;5088765;28;20062;-81
2022/08/03 04:41:30;;;;;;;4.20;3.17;;;22.10;99.90;;;;;;5088560;28;20024;-83
2022/08/03 04:43:59;;;;;;;7.10;2.90;;;22.30;99.90;;;;;;5088989;28;20377;-82
2022/08/03 04:46:35;;;;;;;3.80;3.30;;;22.50;99.90;;;;;;5088163;28;20027;-82
2022/08/03 04:49:02;;;;;;;4.57;3.28;;;22.70;99.90;;;;;;5088548;28;20430;-82
2022/08/03 04:51:28;;;;;;;3.08;2.78;;;22.90;99.90;;;;;;5088807;28;20085;-83
2022/08/03 04:53:54;;;;;;;6.40;3.08;;;23.10;99.90;;;;;;5106596;28;20038;-82
2022/08/03 04:56:19;;;;;;;3.42;2.60;;;23.20;99.90;;;;;;5089226;28;20024;-82
2022/08/03 04:58:45;;;;;;;4.72;2.97;;;23.40;99.90;;;;;;5106079;28;20027;-82
2022/08/03 05:01:11;;;;;;;4.65;3.40;;;23.50;99.90;;;;;;5106569;28;20496;-82
2022/08/03 05:03:37;;;;;;;5.53;3.05;;;23.60;99.90;;;;;;5088600;28;20488;-82
2022/08/03 05:06:02;;;;;;;4.72;3.47;;;23.70;99.90;;;;;;5088767;28;20027;-81
2022/08/03 05:08:28;;;;;;;3.55;3.25;;;23.70;99.90;;;;;;5106971;28;20031;-80
2022/08/03 05:10:57;;;;;;;3.80;3.03;;;23.70;99.90;;;;;;5088887;28;20052;-82
2022/08/03 05:13:23;;;;;;;7.65;3.92;;;23.70;99.90;;;;;;5107423;28;20066;-82
2022/08/03 05:15:48;;;;;;;3.67;3.10;;;23.80;99.90;;;;;;5088600;28;20027;-81
2022/08/03 05:18:14;;;;;;;8.60;3.25;;;24.00;99.90;;;;;;5088814;28;20023;-82
2022/08/03 05:20:40;;;;;;;5.00;3.80;;;24.10;99.90;;;;;;5088848;28;20023;-83
2022/08/03 05:23:05;;;;;;;5.63;4.00;;;24.30;99.90;;;;;;5106734;28;20031;-82
2022/08/03 05:25:31;;;;;;;5.97;3.55;;;24.60;99.90;;;;;;5106508;28;20023;-81
2022/08/03 05:27:56;;;;;;;8.15;3.92;;;24.90;99.90;;;;;;5088303;28;20085;-81
2022/08/03 05:30:22;;;;;;;7.50;3.13;;;25.00;99.90;;;;;;5088155;28;20030;-82
2022/08/03 05:32:47;;;;;;;4.18;3.05;;;25.20;99.90;;;;;;5088725;28;20613;-82
2022/08/03 05:35:13;;;;;;;3.53;2.80;;;25.50;99.90;;;;;;5105985;28;20098;-82
2022/08/03 05:37:39;;;;;;;3.95;3.45;;;25.60;99.90;;;;;;5088120;28;20093;-82
2022/08/03 05:40:05;;;;;;;5.57;3.60;;;25.90;99.70;;;;;;5088864;28;20028;-81
2022/08/03 05:42:31;;;;;;;5.38;3.60;;;26.10;99.20;;;;;;5106222;28;20039;-81
2022/08/03 05:44:56;;;;;;;8.18;3.25;;;26.30;99.50;;;;;;5088349;28;20032;-82
2022/08/03 05:47:22;;;;;;;6.47;3.22;;;26.80;98.70;;;;;;5105844;28;20102;-82
2022/08/03 05:49:48;;;;;;;4.65;3.30;;;27.40;97.10;;;;;;5088627;28;20416;-82
2022/08/03 05:52:13;;;;;;;3.90;3.00;;;27.70;95.60;;;;;;5106086;28;20044;-82
2022/08/03 05:54:39;;;;;;;4.15;2.92;;;28.00;93.70;;;;;;5106257;28;20028;-82
2022/08/03 05:57:05;;;;;;;3.47;2.70;;;28.30;92.10;;;;;;5106529;28;20038;-81
2022/08/03 05:59:30;;;;;;;2.95;2.63;;;28.60;90.80;;;;;;5089237;28;20031;-82
2022/08/03 06:01:56;;;;;;;5.97;3.45;;;29.00;90.10;;;;;;5091104;28;20032;-82
2022/08/03 06:04:22;;;;;;;3.42;2.63;;;29.50;87.40;;;;;;5091528;28;20157;-82
2022/08/03 06:06:49;;;;;;;4.22;3.20;;;29.60;84.50;;;;;;5108833;28;20024;-82
2022/08/03 06:09:15;;;;;;;6.65;2.90;;;29.90;83.50;;;;;;5091257;28;20103;-82
2022/08/03 06:11:41;;;;;;;4.40;3.15;;;30.30;79.00;;;;;;5109415;28;20614;-83
2022/08/03 06:14:07;;;;;;;3.35;2.67;;;31.00;75.30;;;;;;5090894;28;20134;-82
2022/08/03 06:16:32;;;;;;;6.20;2.58;;;31.50;73.40;;;;;;5091352;28;20042;-82
2022/08/03 06:18:58;;;;;;;3.03;2.58;;;31.80;69.40;;;;;;5090672;28;20023;-81
2022/08/03 06:21:24;;;;;;;2.97;2.53;;;32.00;67.30;;;;;;5091388;28;20020;-82
2022/08/03 06:23:49;;;;;;;3.70;2.55;;;31.90;66.10;;;;;;5091251;28;20952;-81
2022/08/03 06:26:15;;;;;;;3.90;2.67;;;31.90;64.90;;;;;;5108989;28;20026;-82
2022/08/03 06:28:43;;;;;;;2.80;2.35;;;31.60;65.10;;;;;;5109343;28;20027;-81
2022/08/03 06:31:09;;;;;;;3.35;3.00;;;31.50;65.50;;;;;;5108832;28;20019;-83
2022/08/03 06:33:35;;;;;;;3.60;2.65;;;31.30;66.10;;;;;;5091171;28;20050;-81
2022/08/03 06:36:00;;;;;;;2.80;2.38;;;31.20;65.90;;;;;;5108745;28;20023;-82
2022/08/03 06:38:26;;;;;;;2.53;2.33;;;31.10;67.40;;;;;;5091200;28;20028;-82
2022/08/03 06:40:52;;;;;;;4.22;2.63;;;30.90;68.60;;;;;;5091179;28;20396;-82
2022/08/03 06:43:17;;;;;;;5.68;3.13;;;31.00;69.40;;;;;;5108973;28;20560;-82
2022/08/03 06:45:43;;;;;;;4.20;2.53;;;31.60;67.90;;;;;;5108599;28;20028;-82
2022/08/03 06:48:10;;;;;;;8.00;3.58;;;32.60;64.80;;;;;;5108598;28;20023;-83
2022/08/03 06:50:38;;;;;;;6.22;2.63;;;33.70;60.80;;;;;;5089883;28;20027;-82
2022/08/03 06:53:04;;;;;;;5.28;2.42;;;34.80;58.30;;;;;;5090403;28;20043;-82
2022/08/03 06:55:31;;;;;;;5.43;2.95;;;35.50;55.90;;;;;;5108381;28;20028;-82
2022/08/03 06:57:57;;;;;;;11.93;2.72;;;36.00;53.00;;;;;;5089954;28;20027;-81
2022/08/03 07:00:23;;;;;;;8.68;2.47;;;36.00;50.90;;;;;;5108159;28;20476;-81
2022/08/03 07:02:49;;;;;;;6.97;2.92;;;35.60;50.90;;;;;;5090044;28;20038;-82
2022/08/03 07:05:15;;;;;;;3.92;2.30;;;35.10;51.20;;;;;;5090449;28;20027;-82
2022/08/03 07:07:41;;;;;;;2.85;2.47;;;34.30;52.50;;;;;;5108480;28;20388;-80
2022/08/03 07:10:07;;;;;;;7.47;2.75;;;33.50;50.90;;;;;;5108734;28;20027;-82
2022/08/03 07:12:33;;;;;;;4.03;2.72;;;32.70;53.10;;;;;;5088667;28;20519;-82
2022/08/03 07:15:00;;;;;;;5.22;2.50;;;32.60;53.70;;;;;;5107909;28;20034;-81
2022/08/03 07:17:25;;;;;;;12.00;2.92;;;33.10;53.50;;;;;;5089608;28;20429;-82
2022/08/03 07:19:51;;;;;;;5.20;2.60;;;33.70;52.60;;;;;;5107799;28;20027;-82
2022/08/03 07:22:16;;;;;;;3.00;2.50;;;33.80;51.40;;;;;;5108009;28;20218;-82
2022/08/03 07:24:42;;;;;;;6.00;2.78;;;34.00;50.20;;;;;;5107910;28;20479;-82
2022/08/03 07:27:08;;;;;;;3.63;2.65;;;34.70;48.90;;;;;;5089388;28;20472;-82
2022/08/03 07:29:35;;;;;;;4.78;2.53;;;35.00;48.60;;;;;;5089558;28;20423;-83
2022/08/03 07:32:02;;;;;;;5.35;2.60;;;34.90;48.10;;;;;;5089466;28;20138;-83
2022/08/03 07:34:27;;;;;;;4.88;2.35;;;35.00;48.90;;;;;;5089424;28;20027;-82
2022/08/03 07:36:53;;;;;;;6.07;2.40;;;35.30;48.60;;;;;;5089474;28;20563;-82
2022/08/03 07:39:19;;;;;;;3.67;2.72;;;35.40;46.30;;;;;;5107192;28;20122;-83
2022/08/03 07:41:45;;;;;;;2.72;2.45;;;35.00;47.20;;;;;;5107499;28;20314;-83
2022/08/03 07:44:11;;;;;;;4.18;2.70;;;35.10;47.40;;;;;;5088863;28;20036;-82
2022/08/03 07:46:36;;;;;;;3.47;2.40;;;35.10;47.60;;;;;;5089003;28;20073;-82
2022/08/03 07:49:02;;;;;;;3.50;2.42;;;35.00;46.90;;;;;;5089557;28;20089;-82
2022/08/03 07:51:28;;;;;;;4.32;2.80;;;35.00;47.10;;;;;;5107304;28;20265;-83
2022/08/03 07:53:56;;;;;;;9.15;3.05;;;35.50;46.20;;;;;;5088832;28;20032;-82
2022/08/03 07:56:23;;;;;;;8.95;2.63;;;35.90;46.40;;;;;;5089377;28;20055;-82
2022/08/03 07:58:50;;;;;;;4.68;2.13;;;36.30;45.10;;;;;;5088310;28;20063;-82
2022/08/03 08:01:18;;;;;;;3.90;2.90;;;35.70;45.80;;;;;;5107503;28;20051;-82
2022/08/03 08:03:46;;;;;;;3.22;2.13;;;35.80;45.20;;;;;;5088132;28;20034;-82
2022/08/03 08:06:12;;;;;;;3.83;2.60;;;36.30;44.50;;;;;;5107355;28;20066;-82
2022/08/03 08:08:39;;;;;;;9.07;2.95;;;36.50;43.40;;;;;;5089063;28;20450;-81
2022/08/03 08:11:05;;;;;;;3.55;2.50;;;36.20;43.10;;;;;;5088646;28;20428;-82
2022/08/03 08:13:31;;;;;;;4.13;2.30;;;36.00;43.70;;;;;;5088652;28;20072;-82
2022/08/03 08:15:57;;;;;;;3.25;2.38;;;36.10;44.20;;;;;;5088919;28;20024;-82
2022/08/03 08:18:23;;;;;;;3.45;2.72;;;36.80;43.80;;;;;;5089109;28;20446;-81
2022/08/03 08:20:49;;;;;;;4.75;2.65;;;37.10;41.80;;;;;;5088896;28;20492;-82
2022/08/03 08:23:21;;;;;;;5.93;2.50;;;36.90;43.30;;;;;;5106633;28;20055;-82
2022/08/03 08:25:47;;;;;;;5.57;2.53;;;37.30;42.90;;;;;;5106621;28;20033;-82
2022/08/03 08:28:12;;;;;;;11.13;2.72;;;37.10;40.80;;;;;;5088620;28;20487;-81
2022/08/03 08:30:38;;;;;;;15.88;4.53;;;37.00;41.60;;;;;;5106723;28;20035;-82
2022/08/03 08:33:04;;;;;;;28.00;5.25;;;37.10;42.30;;;;;;5106718;28;20032;-81
2022/08/03 08:35:29;;;;;;;3.65;2.45;;;37.70;42.00;;;;;;5088401;28;20421;-82
2022/08/03 08:37:55;;;;;;;6.80;2.30;;;37.90;40.30;;;;;;5088652;28;20492;-82
2022/08/03 08:40:21;;;;;;;4.38;2.47;;;38.10;40.80;;;;;;5106615;28;20027;-82
2022/08/03 08:42:47;;;;;;;13.85;2.85;;;38.50;40.00;;;;;;5106238;28;20038;-83
2022/08/03 08:45:14;;;;;;;7.47;2.75;;;38.90;39.00;;;;;;5106552;28;20533;-82
2022/08/03 08:47:44;;;;;;;8.98;2.70;;;38.90;39.20;;;;;;5087987;28;20415;-81
2022/08/03 08:50:10;;;;;;;4.03;2.67;;;39.40;39.40;;;;;;5106187;28;20038;-81
2022/08/03 08:52:42;;;;;;;4.88;2.45;;;39.40;39.60;;;;;;5088125;28;20059;-82
2022/08/03 08:55:09;;;;;;;4.65;2.55;;;38.90;39.00;;;;;;5106171;28;20068;-82
2022/08/03 08:57:37;;;;;;;5.25;2.47;;;38.30;39.20;;;;;;5106091;28;20055;-82
2022/08/03 09:00:08;;;;;;;4.03;2.85;;;37.20;40.00;;;;;;5088082;28;20058;-81
2022/08/03 09:02:33;;;;;;;4.72;2.88;;;36.10;40.70;;;;;;5087720;28;20034;-81
2022/08/03 09:05:00;;;;;;;3.63;2.55;;;35.90;41.80;;;;;;5088297;28;20028;-80
2022/08/03 09:07:27;;;;;;;4.88;2.75;;;35.80;42.60;;;;;;5106246;28;20023;-82
2022/08/03 09:09:53;;;;;;;6.93;2.70;;;35.00;43.40;;;;;;5106844;28;20028;-81
2022/08/03 09:12:19;;;;;;;4.10;3.15;;;34.30;45.10;;;;;;5106169;28;20302;-82
2022/08/03 09:14:45;;;;;;;5.07;3.33;;;33.70;46.00;;;;;;5087677;28;20035;-82
2022/08/03 09:17:10;;;;;;;8.75;4.28;;;33.30;46.60;;;;;;5087776;28;20494;-82
2022/08/03 09:19:36;;;;;;;4.63;2.92;;;33.00;47.20;;;;;;5088098;28;20032;-82
2022/08/03 09:22:15;;;;;;;38.63;7.22;;;32.70;48.00;;;;;;5105855;28;20066;-82
2022/08/03 09:24:57;;;;;;;9.07;3.40;;;32.50;48.30;;;;;;5106577;28;20039;-82
2022/08/03 09:27:23;;;;;;;9.85;3.50;;;31.90;49.30;;;;;;5087767;28;20824;-81
2022/08/03 09:29:51;;;;;;;6.68;3.33;;;31.70;50.60;;;;;;5087514;28;20077;-82
2022/08/03 09:32:21;;;;;;;4.30;3.65;;;31.50;51.30;;;;;;5087859;28;20515;-81
2022/08/03 09:34:48;;;;;;;7.32;3.40;;;31.40;52.00;;;;;;5089208;28;20446;-81
2022/08/03 09:37:21;;;;;;;6.25;3.50;;;31.20;52.30;;;;;;5092150;28;20110;-82
2022/08/03 09:39:47;;;;;;;5.80;3.45;;;31.10;52.40;;;;;;5091461;28;20023;-82
2022/08/03 09:42:17;;;;;;;6.35;3.55;;;30.90;52.60;;;;;;5109889;28;20057;-81
2022/08/03 09:44:46;;;;;;;4.70;3.40;;;30.70;53.90;;;;;;5110421;28;20047;-83
2022/08/03 09:47:35;;;;;;;5.22;3.90;;;30.60;54.10;;;;;;5087052;28;20081;-82
2022/08/03 09:50:08;;;;;;;4.97;3.15;;;30.50;54.20;;;;;;5092192;28;20028;-83
2022/08/03 09:52:39;;;;;;;4.90;3.45;;;30.50;53.60;;;;;;5092791;28;20032;-82
2022/08/03 09:55:10;;;;;;;14.60;4.15;;;30.30;53.50;;;;;;5110620;28;20028;-82
2022/08/03 09:57:36;;;;;;;6.32;3.40;;;30.00;54.20;;;;;;5089179;28;20019;-82
2022/08/03 10:00:11;;;;;;;5.57;3.75;;;29.90;55.00;;;;;;5092090;28;20032;-83
2022/08/03 10:02:38;;;;;;;5.05;3.42;;;29.80;55.60;;;;;;5110951;28;20015;-83
2022/08/03 10:05:05;;;;;;;6.82;4.28;;;29.80;55.80;;;;;;5085336;28;20050;-83
2022/08/03 10:07:42;;;;;;;13.32;3.80;;;29.80;55.10;;;;;;5086918;28;20032;-83
2022/08/03 10:10:09;;;;;;;5.28;3.70;;;29.80;55.70;;;;;;5110344;28;20020;-83
2022/08/03 10:12:36;;;;;;;5.18;3.10;;;29.80;56.10;;;;;;5091781;28;20067;-82
2022/08/03 10:15:02;;;;;;;5.70;2.75;;;29.60;55.50;;;;;;5091921;28;20074;-81
2022/08/03 10:17:28;;;;;;;5.05;3.17;;;29.70;55.90;;;;;;5109762;28;20138;-81
2022/08/03 10:19:54;;;;;;;4.25;2.92;;;29.70;55.40;;;;;;5108996;28;20122;-82
2022/08/03 10:22:25;;;;;;;8.52;3.38;;;29.70;56.40;;;;;;5091397;28;20031;-81
2022/08/03 10:25:09;;;;;;;9.48;3.28;;;29.70;56.10;;;;;;5091259;28;20020;-81
2022/08/03 10:27:38;;;;;;;10.35;3.50;;;29.60;56.10;;;;;;5090610;28;20028;-80
2022/08/03 10:30:09;;;;;;;5.78;3.67;;;29.70;56.30;;;;;;5109437;28;20032;-81
2022/08/03 10:33:03;;;;;;;6.93;3.15;;;29.60;56.10;;;;;;5090589;28;20044;-81
2022/08/03 10:35:29;;;;;;;6.22;3.45;;;29.70;56.30;;;;;;5087410;28;20586;-80
2022/08/03 10:38:02;;;;;;;5.25;3.35;;;29.60;56.50;;;;;;5090723;28;20027;-80
2022/08/03 10:40:30;;;;;;;4.88;3.60;;;29.90;56.10;;;;;;5108941;28;20569;-80
2022/08/03 10:43:12;;;;;;;13.32;3.45;;;30.10;55.60;;;;;;5092135;28;20032;-81
2022/08/03 10:45:41;;;;;;;7.47;4.13;;;30.50;55.90;;;;;;5090540;28;20019;-81
2022/08/03 10:48:07;;;;;;;6.80;3.17;;;30.70;55.60;;;;;;5090959;28;20042;-81
2022/08/03 10:50:33;;;;;;;5.30;3.13;;;31.10;56.20;;;;;;5089912;28;20070;-81
2022/08/03 10:53:07;;;;;;;10.23;3.17;;;31.50;53.40;;;;;;5090569;28;20420;-80
2022/08/03 10:58:43;;;;;;;6.28;3.50;;;32.40;53.80;;;;;;5108603;28;20498;-81
2022/08/03 11:01:12;;;;;;;7.70;3.20;;;32.80;52.20;;;;;;5108579;28;20484;-81
2022/08/03 11:03:57;;;;;;;6.45;3.60;;;32.70;50.20;;;;;;5090099;28;20496;-81
2022/08/03 11:06:25;;;;;;;9.40;3.22;;;32.80;51.00;;;;;;5089652;28;20318;-81
2022/08/03 11:09:15;;;;;;;6.03;3.50;;;32.70;50.50;;;;;;5108271;28;20040;-82
2022/08/03 11:11:42;;;;;;;9.05;3.13;;;32.60;50.40;;;;;;5074860;28;20047;-80
2022/08/03 11:14:18;;;;;;;7.13;3.33;;;32.50;50.80;;;;;;5089623;28;20092;-81
2022/08/03 11:16:49;;;;;;;10.13;3.20;;;32.40;49.50;;;;;;5108369;28;20034;-81
2022/08/03 11:19:18;;;;;;;5.35;3.80;;;32.00;49.70;;;;;;5108256;28;20495;-81
2022/08/03 11:21:51;;;;;;;11.65;3.47;;;31.70;51.00;;;;;;5108089;28;20031;-81
2022/08/03 11:24:41;;;;;;;9.05;3.55;;;31.60;51.00;;;;;;5108316;28;20061;-81
2022/08/03 11:27:34;;;;;;;6.93;3.15;;;31.60;52.10;;;;;;5092563;28;20036;-81
2022/08/03 11:30:08;;;;;;;7.22;3.50;;;31.60;52.20;;;;;;5107852;28;20040;-81
2022/08/03 11:32:36;;;;;;;7.03;3.10;;;31.50;52.10;;;;;;5089745;28;20069;-81
2022/08/03 11:35:08;;;;;;;5.80;3.00;;;31.40;52.10;;;;;;5107404;28;20468;-81
2022/08/03 11:37:34;;;;;;;5.03;2.90;;;31.50;50.80;;;;;;5090365;28;20073;-81
2022/08/03 11:40:00;;;;;;;4.05;3.30;;;31.50;50.10;;;;;;5089329;28;20089;-80
2022/08/03 11:42:27;;;;;;;5.50;2.90;;;31.60;50.10;;;;;;5088471;28;20023;-81
2022/08/03 11:44:55;;;;;;;2.83;2.45;;;31.80;49.90;;;;;;5089422;28;20105;-81
2022/08/03 11:47:23;;;;;;;5.93;3.30;;;32.00;48.20;;;;;;5107763;28;20023;-81
2022/08/03 11:49:50;;;;;;;6.80;2.78;;;32.10;48.30;;;;;;5089600;28;20032;-81
2022/08/03 11:52:17;;;;;;;4.35;2.60;;;32.20;47.70;;;;;;5107293;28;20031;-80
2022/08/03 11:54:43;;;;;;;4.18;3.22;;;32.30;46.90;;;;;;5107358;28;20024;-81
2022/08/03 11:57:08;;;;;;;3.30;2.58;;;32.40;47.00;;;;;;5088522;28;20334;-81
2022/08/03 11:59:36;;;;;;;4.07;2.83;;;32.30;46.70;;;;;;5107371;28;20023;-81
2022/08/03 12:02:15;;;;;;;3.65;3.00;;;32.60;47.50;;;;;;5089299;28;20026;-81
2022/08/03 12:04:53;;;;;;;6.68;3.53;;;32.90;47.70;;;;;;5089296;28;20066;-81
2022/08/03 12:07:19;;;;;;;6.55;3.55;;;33.30;47.60;;;;;;5089198;28;20028;-81
2022/08/03 12:10:10;;;;;;;10.65;3.10;;;33.10;46.80;;;;;;5107323;28;20023;-82
2022/08/03 12:12:37;;;;;;;13.52;3.15;;;33.10;47.50;;;;;;5086666;28;20043;-81
2022/08/03 12:15:04;;;;;;;3.63;2.97;;;32.80;48.00;;;;;;5087020;28;20115;-81
2022/08/03 12:17:37;;;;;;;11.57;3.13;;;32.70;47.80;;;;;;5069091;28;20023;-81
2022/08/03 12:20:05;;;;;;;6.22;3.05;;;32.60;48.40;;;;;;5068675;28;20628;-81
2022/08/03 12:22:37;;;;;;;5.47;3.45;;;32.50;48.10;;;;;;5068666;28;20020;-81
2022/08/03 12:25:04;;;;;;;7.05;3.25;;;32.60;48.30;;;;;;5087002;28;20082;-82
2022/08/03 12:27:29;;;;;;;4.70;2.80;;;32.50;47.80;;;;;;5068163;28;20040;-81
2022/08/03 12:29:57;;;;;;;3.83;3.28;;;32.60;47.90;;;;;;5086324;28;20024;-81
2022/08/03 12:32:24;;;;;;;3.80;2.90;;;32.70;47.50;;;;;;5086020;28;20047;-80
2022/08/03 12:34:50;;;;;;;6.95;2.67;;;32.60;47.70;;;;;;5068415;28;20038;-81
2022/08/03 12:37:21;;;;;;;5.03;2.97;;;32.60;48.10;;;;;;5086731;28;20442;-81
2022/08/03 12:39:55;;;;;;;9.82;4.28;;;32.60;48.10;;;;;;5086051;28;20027;-81
2022/08/03 12:42:20;;;;;;;4.45;3.00;;;32.50;48.50;;;;;;5086020;28;20036;-82
2022/08/03 12:44:47;;;;;;;11.85;3.20;;;32.30;48.80;;;;;;5086522;28;20024;-80
2022/08/03 12:47:14;;;;;;;4.35;3.22;;;32.40;49.60;;;;;;5067936;28;20077;-81
2022/08/03 12:49:51;;;;;;;3.70;2.90;;;32.40;49.20;;;;;;5086492;28;20508;-80
2022/08/03 12:52:18;;;;;;;5.53;2.80;;;32.30;48.30;;;;;;5068376;28;20031;-81
2022/08/03 12:54:58;;;;;;;8.02;3.42;;;32.10;47.60;;;;;;5068765;28;20062;-81
2022/08/03 12:57:24;;;;;;;5.20;2.67;;;32.00;48.60;;;;;;5084428;28;20148;-81
2022/08/03 12:59:54;;;;;;;9.45;3.17;;;32.00;49.20;;;;;;5085228;28;20089;-81
2022/08/03 13:02:24;;;;;;;3.20;2.90;;;31.80;48.20;;;;;;5085742;28;20202;-81